« Back
NWS Peachtree City, Ga » Text Product » MCN Terminal Aerodrome Forecast


Printer-friendly Version
Current Version              Previous Versions:   1  2  3  4  5  6  7  8  9  

Terminal Aerodrome Forecast

406
FTUS42 KFFC 201700
TAFMCN
TAF
KMCN 201729Z 2018/2118 27005KT P6SM FEW250
     FM210000 00000KT P6SM SCT100
     FM211400 31004KT P6SM FEW100
     FM211700 31008KT P6SM FEW250=



USA.gov is the U.S. government's official web portal to all federal, state and local government web resources and services.